CCA1866 ZGGG-ZSPD
Flight info
| Callsign | CCA1866 |
|---|---|
| Flight time | N/A |
| Altitude | 35100 |
| Route | LMN9 LMN G471 XEBUL DCT ODOPI DCT AKAVO DCT UPNUG W76 AREPI B221 SHZ W58 BK BK83A |
| Aircraft | B77W/H-SDE1E2E3FGHIJ2J3J4J5M1RWXY/LB1D1 |
Departure
| Time | 2026-05-05 10:21 |
|---|---|
| Airport | Guangzhou Baiyun International Airport (ZGGG) |
Arrival
| Time | N/A |
|---|---|
| Airport | Shanghai Pudong International Airport (ZSPD) |
| Time | Latitude | Longitude | Altitude | Speed | Heading |
|---|---|---|---|---|---|
| 2026-05-05 10:12 | 23.38478 | 113.30118 | 63 ft | 0 kts | 232° |
| 2026-05-05 10:13 | 23.38485 | 113.30127 | 63 ft | 2 kts | 226° |
| 2026-05-05 10:13 | 23.38496 | 113.30140 | 54 ft | 2 kts | 223° |
| 2026-05-05 10:14 | 23.38509 | 113.30151 | 63 ft | 2 kts | 214° |
| 2026-05-05 10:14 | 23.38523 | 113.30160 | 54 ft | 2 kts | 201° |
| 2026-05-05 10:14 | 23.38538 | 113.30165 | 57 ft | 2 kts | 181° |
| 2026-05-05 10:14 | 23.38555 | 113.30163 | 54 ft | 2 kts | 156° |
| 2026-05-05 10:15 | 23.38569 | 113.30154 | 54 ft | 2 kts | 142° |
| 2026-05-05 10:15 | 23.38575 | 113.30148 | 54 ft | 0 kts | 142° |
| 2026-05-05 10:16 | 23.38555 | 113.30165 | 54 ft | 11 kts | 142° |
| 2026-05-05 10:17 | 23.38449 | 113.30255 | 56 ft | 23 kts | 141° |
| 2026-05-05 10:17 | 23.38391 | 113.30362 | 57 ft | 19 kts | 104° |
| 2026-05-05 10:17 | 23.38359 | 113.30500 | 58 ft | 15 kts | 109° |
| 2026-05-05 10:17 | 23.38270 | 113.30522 | 60 ft | 13 kts | 195° |
| 2026-05-05 10:18 | 23.38128 | 113.30483 | 61 ft | 29 kts | 194° |
| 2026-05-05 10:18 | 23.37911 | 113.30424 | 55 ft | 23 kts | 194° |
| 2026-05-05 10:18 | 23.37753 | 113.30382 | 59 ft | 23 kts | 194° |
| 2026-05-05 10:18 | 23.37654 | 113.30361 | 54 ft | 9 kts | 171° |
| 2026-05-05 10:19 | 23.37611 | 113.30411 | 56 ft | 10 kts | 111° |
| 2026-05-05 10:19 | 23.37605 | 113.30433 | 56 ft | 1 kts | 104° |
| 2026-05-05 10:19 | 23.37603 | 113.30443 | 58 ft | 2 kts | 104° |
| 2026-05-05 10:19 | 23.37597 | 113.30467 | 56 ft | 5 kts | 104° |
| 2026-05-05 10:20 | 23.37602 | 113.30518 | 58 ft | 9 kts | 59° |
| 2026-05-05 10:20 | 23.37665 | 113.30558 | 58 ft | 13 kts | 15° |
| 2026-05-05 10:20 | 23.37794 | 113.30594 | 56 ft | 34 kts | 13° |
| 2026-05-05 10:20 | 23.38351 | 113.30745 | 57 ft | 136 kts | 13° |
| 2026-05-05 10:21 | 23.39547 | 113.31067 | 338 ft | 201 kts | 15° |
| 2026-05-05 10:21 | 23.40933 | 113.31457 | 1316 ft | 210 kts | 15° |
| 2026-05-05 10:21 | 23.42379 | 113.31873 | 2249 ft | 224 kts | 15° |
| 2026-05-05 10:21 | 23.43993 | 113.32349 | 2728 ft | 253 kts | 15° |
| 2026-05-05 10:22 | 23.45729 | 113.32863 | 3641 ft | 264 kts | 14° |
| 2026-05-05 10:22 | 23.47096 | 113.33270 | 4448 ft | 267 kts | 14° |
| 2026-05-05 10:22 | 23.48858 | 113.33816 | 5458 ft | 274 kts | 14° |
| 2026-05-05 10:23 | 23.50726 | 113.34387 | 6315 ft | 286 kts | 12° |
| 2026-05-05 10:23 | 23.52663 | 113.35004 | 6990 ft | 294 kts | 15° |
| 2026-05-05 10:23 | 23.54594 | 113.35597 | 7975 ft | 290 kts | 7° |
| 2026-05-05 10:23 | 23.56609 | 113.35988 | 8738 ft | 299 kts | 7° |
| 2026-05-05 10:24 | 23.58673 | 113.36391 | 9761 ft | 302 kts | 6° |
| 2026-05-05 10:24 | 23.60748 | 113.36854 | 10644 ft | 308 kts | 14° |
| 2026-05-05 10:24 | 23.62687 | 113.38074 | 10993 ft | 344 kts | 43° |
| 2026-05-05 10:24 | 23.64048 | 113.40351 | 11234 ft | 378 kts | 70° |
| 2026-05-05 10:25 | 23.64665 | 113.43201 | 11675 ft | 399 kts | 81° |
| 2026-05-05 10:25 | 23.65138 | 113.46233 | 12514 ft | 410 kts | 80° |
| 2026-05-05 10:25 | 23.65671 | 113.49326 | 13468 ft | 418 kts | 78° |
| 2026-05-05 10:25 | 23.66282 | 113.52456 | 14383 ft | 424 kts | 77° |
| 2026-05-05 10:26 | 23.66943 | 113.55619 | 15217 ft | 431 kts | 76° |
| 2026-05-05 10:26 | 23.67623 | 113.58832 | 16034 ft | 438 kts | 77° |
| 2026-05-05 10:26 | 23.67998 | 113.62144 | 16722 ft | 446 kts | 89° |
| 2026-05-05 10:26 | 23.67881 | 113.65558 | 17431 ft | 454 kts | 94° |
| 2026-05-05 10:27 | 23.67659 | 113.69017 | 18221 ft | 460 kts | 94° |
| 2026-05-05 10:27 | 23.67430 | 113.72518 | 18923 ft | 466 kts | 94° |
| 2026-05-05 10:27 | 23.67222 | 113.76065 | 19639 ft | 470 kts | 94° |
| 2026-05-05 10:27 | 23.67042 | 113.79648 | 20364 ft | 475 kts | 93° |
| 2026-05-05 10:28 | 23.66881 | 113.83276 | 21082 ft | 480 kts | 92° |
| 2026-05-05 10:28 | 23.66732 | 113.86888 | 21772 ft | 485 kts | 92° |
| 2026-05-05 10:28 | 23.66584 | 113.90581 | 22478 ft | 490 kts | 92° |
| 2026-05-05 10:28 | 23.66435 | 113.94310 | 23216 ft | 494 kts | 92° |
| 2026-05-05 10:29 | 23.66281 | 113.98076 | 23834 ft | 499 kts | 92° |
| 2026-05-05 10:29 | 23.66124 | 114.01880 | 24376 ft | 504 kts | 92° |
| 2026-05-05 10:29 | 23.65964 | 114.05716 | 24888 ft | 509 kts | 92° |
| 2026-05-05 10:29 | 23.65800 | 114.09605 | 25390 ft | 515 kts | 92° |
| 2026-05-05 10:30 | 23.65630 | 114.13533 | 25890 ft | 521 kts | 92° |
| 2026-05-05 10:30 | 23.65460 | 114.17495 | 26459 ft | 525 kts | 92° |
| 2026-05-05 10:30 | 23.65289 | 114.21475 | 27023 ft | 528 kts | 92° |
| 2026-05-05 10:30 | 23.65137 | 114.25435 | 27505 ft | 528 kts | 89° |
| 2026-05-05 10:31 | 23.65564 | 114.29421 | 27813 ft | 533 kts | 72° |
| 2026-05-05 10:31 | 23.67010 | 114.33124 | 28257 ft | 530 kts | 55° |
| 2026-05-05 10:31 | 23.69193 | 114.36337 | 28800 ft | 524 kts | 41° |
| 2026-05-05 10:31 | 23.71944 | 114.38880 | 29268 ft | 515 kts | 30° |
| 2026-05-05 10:32 | 23.74887 | 114.41175 | 29543 ft | 523 kts | 30° |
| 2026-05-05 10:32 | 23.77861 | 114.43504 | 29903 ft | 528 kts | 30° |
| 2026-05-05 10:32 | 23.80838 | 114.45873 | 30355 ft | 529 kts | 30° |
| 2026-05-05 10:32 | 23.83804 | 114.48272 | 30897 ft | 528 kts | 31° |
| 2026-05-05 10:33 | 23.86734 | 114.50670 | 31457 ft | 526 kts | 31° |
| 2026-05-05 10:33 | 23.89614 | 114.53042 | 32052 ft | 524 kts | 31° |
| 2026-05-05 10:33 | 23.92511 | 114.55436 | 32700 ft | 520 kts | 30° |
| 2026-05-05 10:33 | 23.95398 | 114.57820 | 33249 ft | 519 kts | 30° |
| 2026-05-05 10:34 | 23.98279 | 114.60194 | 33718 ft | 519 kts | 30° |
| 2026-05-05 10:34 | 24.01171 | 114.62576 | 34153 ft | 519 kts | 29° |
| 2026-05-05 10:34 | 24.04054 | 114.64953 | 34551 ft | 519 kts | 29° |
| 2026-05-05 10:34 | 24.06939 | 114.67332 | 34958 ft | 519 kts | 29° |
| 2026-05-05 10:35 | 24.09830 | 114.69717 | 35106 ft | 523 kts | 29° |
| 2026-05-05 10:35 | 24.12738 | 114.72117 | 35095 ft | 522 kts | 30° |
| 2026-05-05 10:35 | 24.18501 | 114.76887 | 35099 ft | 516 kts | 30° |
| 2026-05-05 10:36 | 24.24188 | 114.81591 | 35096 ft | 515 kts | 30° |
| 2026-05-05 10:36 | 24.29590 | 114.86873 | 35098 ft | 526 kts | 40° |
| 2026-05-05 10:37 | 24.34212 | 114.93177 | 35101 ft | 533 kts | 46° |
| 2026-05-05 10:37 | 24.38675 | 114.99677 | 35136 ft | 533 kts | 46° |
| 2026-05-05 10:38 | 24.43175 | 115.06160 | 35096 ft | 534 kts | 46° |
| 2026-05-05 10:38 | 24.47711 | 115.12630 | 35098 ft | 535 kts | 46° |
| 2026-05-05 10:39 | 24.50720 | 115.16918 | 35099 ft | 535 kts | 46° |